Menu Close Menu
Station Historical Data
Daily Summary for June 24, 2017 Units:  English    Metric   Both
« Previous Day
Next Day »
Daily Weekly Monthly Yearly Custom
  High: Low: Average:
Temperature: 82.5 °F 71.1 °F 75 °F
Dew Point: 75.2 °F 68.9 °F 71.4 °F
Humidity: 94% 75% 89%
Wind Speed: 0.0mph 0.0mph 0mph
Wind Gust: 6.0mph - -
Wind- -
Pressure: 30.08 in 29.93 in -
Precipitation: 0.06 in    
Historical Graphs
 
 
Tabular Data for June 24, 2017
Time Temperature Dew Point Pressure Wind Wind Speed Wind Gust Humidity Rainfall Rate (Hourly) solar Conditions
00:00 71.7 °F 69.6 °F 29.95 in Calm     93% 0.00 in WeatherDisplay:10.37 W/m2 RA
00:10 71.7 °F 69.6 °F 29.95 in Calm     93% 0.00 in WeatherDisplay:10.37 W/m2 OVC
00:20 71.7 °F 69.6 °F 29.95 in Calm     93% 0.00 in WeatherDisplay:10.37 W/m2 BKN
00:30 71.7 °F 69.6 °F 29.95 in Calm     93% 0.01 in WeatherDisplay:10.37 W/m2 BKN
00:40 71.7 °F 69.9 °F 29.95 in Calm     94% 0.00 in WeatherDisplay:10.37 W/m2 BKN
00:50 71.7 °F 69.9 °F 29.95 in Calm     94% 0.00 in WeatherDisplay:10.37 W/m2 BKN
01:00 71.7 °F 69.9 °F 29.95 in Calm     94% 0.00 in WeatherDisplay:10.37 W/m2 FEW
01:10 71.7 °F 69.9 °F 29.95 in Calm     94% 0.00 in WeatherDisplay:10.37 W/m2 FEW
01:20 71.7 °F 69.8 °F 29.95 in Calm   1.0 mph 94% 0.00 in WeatherDisplay:10.37 W/m2 SCT
01:30 71.6 °F 69.8 °F 29.94 in Calm     94% 0.01 in WeatherDisplay:10.37 W/m2 OVC
01:40 71.1 °F 68.9 °F 29.94 in Calm     93% 0.00 in WeatherDisplay:10.37 W/m2 OVC
01:50 71.2 °F 69.1 °F 29.94 in Calm     93% 0.00 in WeatherDisplay:10.37 W/m2 BKN
02:00 71.2 °F 69.1 °F 29.94 in Calm     93% 0.00 in WeatherDisplay:10.37 W/m2 -RA
02:10 71.2 °F 69.1 °F 29.94 in Calm   1.0 mph 93% 0.00 in WeatherDisplay:10.37 W/m2 -RA
02:20 71.2 °F 69.1 °F 29.95 in Calm     93% 0.00 in WeatherDisplay:10.37 W/m2 BKN
02:30 71.2 °F 69.1 °F 29.95 in Calm     93% 0.00 in WeatherDisplay:10.37 W/m2 BKN
02:40 71.2 °F 69.1 °F 29.95 in Calm     93% 0.00 in WeatherDisplay:10.37 W/m2 BKN
02:50 71.2 °F 69.1 °F 29.94 in Calm     93% 0.00 in WeatherDisplay:10.37 W/m2 BKN
03:00 71.2 °F 69.1 °F 29.94 in Calm     93% 0.00 in WeatherDisplay:10.37 W/m2 BKN
03:20 71.2 °F 69.1 °F 29.94 in Calm     93% 0.00 in WeatherDisplay:10.37 W/m2 BKN
03:30 71.2 °F 69.1 °F 29.93 in Calm     93% 0.00 in WeatherDisplay:10.37 W/m2 BKN
03:40 71.2 °F 69.1 °F 29.94 in Calm     93% 0.00 in WeatherDisplay:10.37 W/m2 BKN
03:50 71.2 °F 69.1 °F 29.94 in Calm     93% 0.00 in WeatherDisplay:10.37 W/m2 BKN
04:00 71.2 °F 69.1 °F 29.94 in Calm     93% 0.00 in WeatherDisplay:10.37 W/m2 BKN
04:20 71.2 °F 69.1 °F 29.94 in Calm     93% 0.00 in WeatherDisplay:10.37 W/m2 OVC
04:30 71.2 °F 69.1 °F 29.94 in Calm     93% 0.00 in WeatherDisplay:10.37 W/m2 OVC
04:40 71.2 °F 69.1 °F 29.94 in Calm     93% 0.00 in WeatherDisplay:10.37 W/m2 OVC
04:50 71.2 °F 69.1 °F 29.94 in Calm     93% 0.00 in WeatherDisplay:10.37 W/m2 OVC
05:00 71.2 °F 69.1 °F 29.94 in Calm     93% 0.00 in WeatherDisplay:10.37 W/m2 OVC
05:10 71.2 °F 69.1 °F 29.95 in Calm     93% 0.00 in WeatherDisplay:10.37 W/m2 OVC
05:20 71.2 °F 69.1 °F 29.95 in Calm     93% 0.00 in WeatherDisplay:10.37 W/m2 OVC
05:30 71.2 °F 69.1 °F 29.95 in Calm     93% 0.00 in WeatherDisplay:10.37 W/m2 OVC
05:40 71.2 °F 69.1 °F 29.95 in Calm     93% 0.00 in WeatherDisplay:10.37 W/m2 OVC
05:50 71.2 °F 69.1 °F 29.95 in Calm     93% 0.00 in WeatherDisplay:10.37 W/m2 OVC
06:00 71.2 °F 69.1 °F 29.95 in Calm     93% 0.00 in WeatherDisplay:10.37 W/m2 -RA
06:10 71.2 °F 69.1 °F 29.96 in Calm     93% 0.00 in WeatherDisplay:10.37 W/m2 -RA
06:20 71.2 °F 69.1 °F 29.96 in Calm     93% 0.00 in WeatherDisplay:10.37 W/m2 -RA
06:30 71.2 °F 69.1 °F 29.96 in Calm     93% 0.00 in WeatherDisplay:10.37 W/m2 -RA
06:40 71.2 °F 69.1 °F 29.96 in Calm     93% 0.00 in WeatherDisplay:10.37 W/m2 -RA
06:50 71.2 °F 69.1 °F 29.96 in Calm     93% 0.00 in WeatherDisplay:10.37 W/m2 OVC
07:00 71.2 °F 69.1 °F 29.97 in Calm     93% 0.00 in WeatherDisplay:10.37 W/m2 OVC
07:10 71.2 °F 69.1 °F 29.97 in Calm     93% 0.00 in WeatherDisplay:10.37 W/m2 OVC
07:20 71.2 °F 69.1 °F 29.97 in Calm     93% 0.00 in WeatherDisplay:10.37 W/m2 -DZ
07:30 71.2 °F 69.1 °F 29.97 in Calm     93% 0.00 in WeatherDisplay:10.37 W/m2 -DZ
07:40 71.2 °F 69.1 °F 29.98 in Calm     93% 0.00 in WeatherDisplay:10.37 W/m2 -DZ
07:50 71.2 °F 69.1 °F 29.98 in Calm     93% 0.00 in WeatherDisplay:10.37 W/m2 OVC
08:00 71.2 °F 69.1 °F 29.98 in Calm     93% 0.00 in WeatherDisplay:10.37 W/m2 OVC
08:10 71.2 °F 69.1 °F 29.99 in Calm     93% 0.00 in WeatherDisplay:10.37 W/m2 OVC
08:20 71.2 °F 69.1 °F 29.99 in Calm     93% 0.00 in WeatherDisplay:10.37 W/m2 OVC
08:30 71.2 °F 69.1 °F 29.99 in Calm     93% 0.00 in WeatherDisplay:10.37 W/m2 -RA
08:40 71.2 °F 69.1 °F 30.00 in Calm     93% 0.00 in WeatherDisplay:10.37 W/m2 -RA
08:50 71.2 °F 69.1 °F 30.00 in Calm     93% 0.00 in WeatherDisplay:10.37 W/m2 OVC
09:00 71.2 °F 69.1 °F 30.00 in Calm     93% 0.00 in WeatherDisplay:10.37 W/m2 OVC
09:10 71.2 °F 69.1 °F 30.00 in Calm     93% 0.00 in WeatherDisplay:10.37 W/m2 OVC
09:20 71.2 °F 69.1 °F 30.00 in Calm     93% 0.00 in WeatherDisplay:10.37 W/m2 OVC
09:30 71.2 °F 69.1 °F 30.00 in Calm     93% 0.00 in WeatherDisplay:10.37 W/m2 OVC
09:40 71.2 °F 69.1 °F 30.00 in Calm     93% 0.00 in WeatherDisplay:10.37 W/m2 OVC
09:50 71.2 °F 69.1 °F 29.99 in Calm     93% 0.00 in WeatherDisplay:10.37 W/m2 OVC
10:00 71.2 °F 69.1 °F 29.99 in Calm     93% 0.00 in WeatherDisplay:10.37 W/m2 OVC
10:10 71.2 °F 69.1 °F 29.99 in Calm     93% 0.00 in WeatherDisplay:10.37 W/m2 OVC
10:20 71.2 °F 69.1 °F 29.99 in Calm     93% 0.00 in WeatherDisplay:10.37 W/m2 OVC
10:30 71.2 °F 69.1 °F 30.00 in Calm     93% 0.00 in WeatherDisplay:10.37 W/m2 OVC
10:40 71.2 °F 69.1 °F 30.00 in Calm     93% 0.00 in WeatherDisplay:10.37 W/m2 OVC
11:10 71.2 °F 69.1 °F 30.00 in Calm     93% 0.00 in WeatherDisplay:10.37 W/m2 OVC
11:20 71.2 °F 69.1 °F 30.01 in Calm   1.0 mph 93% 0.00 in WeatherDisplay:10.37 W/m2 OVC
11:30 71.2 °F 69.1 °F 30.01 in Calm     93% 0.00 in WeatherDisplay:10.37 W/m2 OVC
11:40 71.2 °F 69.1 °F 30.02 in Calm     93% 0.00 in WeatherDisplay:10.37 W/m2 OVC
11:50 71.2 °F 69.1 °F 30.01 in Calm     93% 0.00 in WeatherDisplay:10.37 W/m2 OVC
12:00 71.2 °F 69.1 °F 30.01 in Calm     93% 0.00 in WeatherDisplay:10.37 W/m2 OVC
12:10 74.4 °F 72.6 °F 30.01 in Calm   1.0 mph 94% 0.00 in WeatherDisplay:10.37 W/m2 OVC
12:20 74.8 °F 73.0 °F 30.01 in Calm   1.0 mph 94% 0.00 in WeatherDisplay:10.37 W/m2 OVC
12:30 75.0 °F 73.2 °F 30.01 in Calm     94% 0.00 in WeatherDisplay:10.37 W/m2 OVC
12:40 75.2 °F 73.4 °F 30.01 in Calm   1.0 mph 94% 0.00 in WeatherDisplay:10.37 W/m2 OVC
12:50 75.8 °F 73.9 °F 30.01 in Calm   4.0 mph 94% 0.00 in WeatherDisplay:10.37 W/m2 OVC
13:00 76.4 °F 74.2 °F 30.00 in Calm   3.0 mph 93% 0.00 in WeatherDisplay:10.37 W/m2 OVC
13:10 76.9 °F 74.1 °F 30.00 in Calm   1.0 mph 91% 0.01 in WeatherDisplay:10.37 W/m2 OVC
13:20 77.4 °F 74.2 °F 30.00 in Calm     90% 0.00 in WeatherDisplay:10.37 W/m2 OVC
13:30 77.2 °F 74.1 °F 30.00 in Calm   1.0 mph 90% 0.00 in WeatherDisplay:10.37 W/m2 OVC
13:40 77.2 °F 74.0 °F 30.00 in Calm     90% 0.00 in WeatherDisplay:10.37 W/m2 OVC
13:50 77.0 °F 74.2 °F 30.00 in Calm     91% 0.00 in WeatherDisplay:10.37 W/m2 OVC
14:00 77.1 °F 74.3 °F 30.00 in Calm     91% 0.00 in WeatherDisplay:10.37 W/m2 OVC
14:10 77.6 °F 74.4 °F 30.00 in Calm   1.0 mph 90% 0.00 in WeatherDisplay:10.37 W/m2 OVC
14:20 78.2 °F 74.7 °F 29.99 in Calm   1.0 mph 89% 0.00 in WeatherDisplay:10.37 W/m2 BKN
14:30 78.9 °F 74.0 °F 29.99 in Calm   2.0 mph 85% 0.00 in WeatherDisplay:10.37 W/m2 BKN
14:40 79.4 °F 74.2 °F 29.99 in Calm   1.0 mph 84% 0.00 in WeatherDisplay:10.37 W/m2 BKN
14:50 79.8 °F 74.5 °F 29.99 in Calm   1.0 mph 84% 0.00 in WeatherDisplay:10.37 W/m2 BKN
15:00 79.9 °F 74.7 °F 29.99 in Calm   1.0 mph 84% 0.01 in WeatherDisplay:10.37 W/m2 BKN
15:10 80.3 °F 74.0 °F 29.99 in Calm   2.0 mph 81% 0.00 in WeatherDisplay:10.37 W/m2 BKN
15:20 80.8 °F 73.7 °F 29.99 in Calm   2.0 mph 79% 0.00 in WeatherDisplay:10.37 W/m2 BKN
15:30 80.9 °F 75.2 °F 29.99 in Calm   1.0 mph 83% 0.00 in WeatherDisplay:10.37 W/m2 BKN
15:40 80.8 °F 74.0 °F 29.98 in Calm   2.0 mph 80% 0.00 in WeatherDisplay:10.37 W/m2 BKN
15:50 81.0 °F 74.2 °F 29.98 in Calm   2.0 mph 80% 0.00 in WeatherDisplay:10.37 W/m2 BKN
16:00 81.0 °F 74.2 °F 29.98 in Calm   1.0 mph 80% 0.00 in WeatherDisplay:10.37 W/m2 BKN
16:10 81.5 °F 73.9 °F 29.98 in Calm   2.0 mph 78% 0.00 in WeatherDisplay:10.37 W/m2 BKN
16:20 81.4 °F 73.9 °F 29.98 in Calm   1.0 mph 78% 0.00 in WeatherDisplay:10.37 W/m2 BKN
16:30 81.7 °F 74.2 °F 29.98 in Calm   6.0 mph 78% 0.00 in WeatherDisplay:10.37 W/m2 BKN
16:40 81.7 °F 74.6 °F 29.97 in Calm   1.0 mph 79% 0.00 in WeatherDisplay:10.37 W/m2 BKN
16:50 81.9 °F 73.6 °F 29.97 in Calm   2.0 mph 76% 0.00 in WeatherDisplay:10.37 W/m2 BKN
17:00 81.8 °F 74.6 °F 29.97 in Calm   2.0 mph 79% 0.01 in WeatherDisplay:10.37 W/m2 BKN
17:10 82.3 °F 74.3 °F 29.97 in Calm   1.0 mph 77% 0.00 in WeatherDisplay:10.37 W/m2 BKN
17:20 82.5 °F 74.6 °F 29.97 in Calm   1.0 mph 77% 0.00 in WeatherDisplay:10.37 W/m2 BKN
17:30 82.2 °F 74.3 °F 29.96 in Calm   2.0 mph 77% 0.00 in WeatherDisplay:10.37 W/m2 BKN
17:40 82.2 °F 73.9 °F 29.96 in Calm   1.0 mph 76% 0.00 in WeatherDisplay:10.37 W/m2 BKN
17:50 82.1 °F 73.8 °F 29.97 in Calm   2.0 mph 76% 0.00 in WeatherDisplay:10.37 W/m2 BKN
18:00 81.6 °F 72.9 °F 29.96 in Calm   1.0 mph 75% 0.00 in WeatherDisplay:10.37 W/m2 BKN
18:10 81.5 °F 73.6 °F 29.97 in Calm     77% 0.00 in WeatherDisplay:10.37 W/m2 BKN
18:20 81.4 °F 73.1 °F 29.97 in Calm   1.0 mph 76% 0.00 in WeatherDisplay:10.37 W/m2 BKN
18:30 81.2 °F 73.7 °F 29.97 in Calm   1.0 mph 78% 0.01 in WeatherDisplay:10.37 W/m2 RA
18:40 80.8 °F 73.7 °F 29.96 in Calm     79% 0.00 in WeatherDisplay:10.37 W/m2 BKN
18:50 80.3 °F 72.8 °F 29.96 in Calm     78% 0.00 in WeatherDisplay:10.37 W/m2 BKN
19:00 80.1 °F 73.7 °F 29.97 in Calm   1.0 mph 81% 0.00 in WeatherDisplay:10.37 W/m2 BKN
19:10 79.6 °F 72.9 °F 29.97 in Calm   1.0 mph 80% 0.00 in WeatherDisplay:10.37 W/m2 BKN
19:20 79.3 °F 73.3 °F 29.97 in Calm     82% 0.00 in WeatherDisplay:10.37 W/m2 BKN
19:30 79.0 °F 73.7 °F 29.99 in Calm     84% 0.00 in WeatherDisplay:10.37 W/m2 BKN
19:40 78.5 °F 73.6 °F 29.99 in Calm     85% 0.00 in WeatherDisplay:10.37 W/m2 BKN
19:50 78.1 °F 73.6 °F 30.00 in Calm     86% 0.00 in WeatherDisplay:10.37 W/m2 BKN
20:00 77.9 °F 73.4 °F 29.99 in Calm     86% 0.00 in WeatherDisplay:10.37 W/m2 BKN
20:10 77.6 °F 73.4 °F 30.00 in Calm     87% 0.00 in WeatherDisplay:10.37 W/m2 BKN
20:20 76.5 °F 72.0 °F 30.00 in Calm     86% 0.00 in WeatherDisplay:10.37 W/m2 BKN
20:30 77.3 °F 72.8 °F 30.01 in Calm     86% 0.00 in WeatherDisplay:10.37 W/m2 BKN
20:40 77.3 °F 72.8 °F 30.02 in Calm     86% 0.00 in WeatherDisplay:10.37 W/m2 BKN
21:00 77.3 °F 72.8 °F 30.02 in Calm     86% 0.00 in WeatherDisplay:10.37 W/m2 BKN
21:10 77.3 °F 72.8 °F 30.04 in Calm     86% 0.00 in WeatherDisplay:10.37 W/m2 BKN
21:20 77.3 °F 72.8 °F 30.05 in Calm     86% 0.00 in WeatherDisplay:10.37 W/m2 OVC
21:30 77.3 °F 72.8 °F 30.06 in Calm     86% 0.00 in WeatherDisplay:10.37 W/m2 OVC
21:40 77.3 °F 72.8 °F 30.06 in Calm     86% 0.00 in WeatherDisplay:10.37 W/m2 OVC
21:50 77.3 °F 72.8 °F 30.06 in Calm     86% 0.00 in WeatherDisplay:10.37 W/m2 OVC
22:00 77.3 °F 72.8 °F 30.05 in Calm     86% 0.00 in WeatherDisplay:10.37 W/m2 OVC
22:10 77.3 °F 72.8 °F 30.05 in Calm     86% 0.00 in WeatherDisplay:10.37 W/m2 OVC
22:20 77.3 °F 72.8 °F 30.06 in Calm     86% 0.00 in WeatherDisplay:10.37 W/m2 OVC
22:30 77.3 °F 72.8 °F 30.06 in Calm     86% 0.00 in WeatherDisplay:10.37 W/m2 OVC
22:40 77.3 °F 72.8 °F 30.06 in Calm     86% 0.00 in WeatherDisplay:10.37 W/m2 OVC
22:50 77.3 °F 72.8 °F 30.06 in Calm     86% 0.00 in WeatherDisplay:10.37 W/m2 OVC
23:00 77.3 °F 72.8 °F 30.06 in Calm     86% 0.00 in WeatherDisplay:10.37 W/m2 OVC
23:10 77.3 °F 72.8 °F 30.07 in Calm     86% 0.00 in WeatherDisplay:10.37 W/m2 OVC
23:20 77.3 °F 72.8 °F 30.08 in Calm     86% 0.00 in WeatherDisplay:10.37 W/m2 OVC
23:30 77.3 °F 72.8 °F 30.08 in Calm     86% 0.00 in WeatherDisplay:10.37 W/m2 BKN
23:40 77.3 °F 72.8 °F 30.08 in Calm     86% 0.00 in WeatherDisplay:10.37 W/m2 BKN
23:50 77.3 °F 72.8 °F 30.08 in Calm     86% 0.00 in WeatherDisplay:10.37 W/m2 BKN
Piedmont Bend
Compliments of Weather Underground - 4 mb